Time;durP1;ratioP1;P1;durP2;ratioP2;P2;SDS_P1;SDS_P2;PMS_P1;PMS_P2;Temp;Humidity;BMP_temperature;BMP_pressure;BME280_temperature;BME280_humidity;BME280_pressure;Samples;Min_cycle;Max_cycle;Signal;HPM_P1;HPM_P2
2023/09/01 00:00:02;;;;;;;;;;;;;;;;;;4977820;28;19925;-94
2023/09/01 00:02:28;;;;;;;;;;;;;;;;;;5007005;28;19928;-94
2023/09/01 00:04:54;;;;;;;;;;;;;;;;;;5016936;28;19910;-94
2023/09/01 00:07:20;;;;;;;;;;;;;;;;;;5014853;28;19916;-94
2023/09/01 00:09:48;;;;;;;;;;;;;;;;;;5016044;28;19932;-93
2023/09/01 00:12:14;;;;;;;;;;;;;;;;;;5013047;28;19909;-94
2023/09/01 00:14:40;;;;;;;;;;;;;;;;;;5014713;28;19916;-94
2023/09/01 00:17:05;;;;;;;;;;;;;;;;;;5017693;28;19905;-95
2023/09/01 00:19:31;;;;;;;;;;;;;;;;;;5013392;28;20393;-94
2023/09/01 00:21:57;;;;;;;;;;;;;;;;;;5013568;28;19913;-94
2023/09/01 00:24:24;;;;;;;;;;;;;;;;;;5013967;28;19913;-94
2023/09/01 00:26:50;;;;;;;;;;;;;;;;;;5017112;28;19937;-95
2023/09/01 00:29:15;;;;;;;;;;;;;;;;;;5014301;28;19909;-94
2023/09/01 00:31:41;;;;;;;;;;;;;;;;;;5018107;28;19905;-94
2023/09/01 00:34:08;;;;;;;;;;;;;;;;;;5009741;28;19906;-94
2023/09/01 00:36:33;;;;;;;;;;;;;;;;;;5016150;28;19952;-94
2023/09/01 00:38:59;;;;;;;;;;;;;;;;;;5024097;28;20272;-95
2023/09/01 00:41:25;;;;;;;;;;;;;;;;;;5018019;28;19917;-94
2023/09/01 00:43:51;;;;;;;;;;;;;;;;;;5016061;28;19952;-94
2023/09/01 00:46:17;;;;;;;;;;;;;;;;;;5012755;28;19909;-96
2023/09/01 00:48:43;;;;;;;;;;;;;;;;;;5011557;28;19905;-94
2023/09/01 00:51:09;;;;;;;;;;;;;;;;;;5013184;28;20326;-93
2023/09/01 00:53:35;;;;;;;;;;;;;;;;;;5016163;28;19941;-94
2023/09/01 00:56:03;;;;;;;;;;;;;;;;;;5015056;28;19911;-94
2023/09/01 00:58:29;;;;;;;;;;;;;;;;;;5016857;28;20007;-95
2023/09/01 01:00:58;;;;;;;;;;;;;;;;;;5013862;28;20890;-94
2023/09/01 01:03:23;;;;;;;;;;;;;;;;;;5012606;28;20389;-94
2023/09/01 01:05:49;;;;;;;;;;;;;;;;;;4999620;28;19963;-95
2023/09/01 01:08:15;;;;;;;;;;;;;;;;;;4997922;28;19992;-94
2023/09/01 01:10:41;;;;;;;;;;;;;;;;;;4996469;28;19973;-95
2023/09/01 01:13:07;;;;;;;;;;;;;;;;;;4996765;28;19905;-94
2023/09/01 01:15:33;;;;;;;;;;;;;;;;;;5017033;28;19909;-95
2023/09/01 01:18:00;;;;;;;;;;;;;;;;;;4998455;28;19980;-94
2023/09/01 01:20:26;;;;;;;;;;;;;;;;;;4997576;28;19933;-94
2023/09/01 01:22:52;;;;;;;;;;;;;;;;;;5004814;28;19917;-94
2023/09/01 01:25:18;;;;;;;;;;;;;;;;;;5002594;28;19910;-95
2023/09/01 01:27:44;;;;;;;;;;;;;;;;;;4999223;28;19919;-94
2023/09/01 01:30:13;;;;;;;;;;;;;;;;;;4997274;28;20086;-95
2023/09/01 01:32:39;;;;;;;;;;;;;;;;;;4995720;28;19913;-94
2023/09/01 01:35:05;;;;;;;;;;;;;;;;;;5007515;28;19910;-94
2023/09/01 01:37:31;;;;;;;;;;;;;;;;;;4993424;28;19917;-94
2023/09/01 01:39:57;;;;;;;;;;;;;;;;;;4992287;28;19917;-94
2023/09/01 01:42:23;;;;;;;;;;;;;;;;;;5001660;28;20016;-94
2023/09/01 01:44:49;;;;;;;;;;;;;;;;;;5000966;28;19936;-94
2023/09/01 01:47:15;;;;;;;;;;;;;;;;;;4995605;28;19916;-93
2023/09/01 01:49:41;;;;;;;;;;;;;;;;;;4997227;28;19913;-94
2023/09/01 01:52:07;;;;;;;;;;;;;;;;;;4999763;28;20368;-95
2023/09/01 01:54:33;;;;;;;;;;;;;;;;;;4993867;28;19924;-93
2023/09/01 01:57:09;;;;;;;;;;;;;;;;;;4992305;28;19913;-95
2023/09/01 01:59:35;;;;;;;;;;;;;;;;;;4998260;28;20337;-94
2023/09/01 02:02:05;;;;;;;;;;;;;;;;;;4999397;28;19920;-94
2023/09/01 02:04:31;;;;;;;;;;;;;;;;;;5006539;28;19917;-93
2023/09/01 02:06:57;;;;;;;;;;;;;;;;;;5014905;28;19920;-94
2023/09/01 02:09:23;;;;;;;;;;;;;;;;;;5012753;28;19953;-94
2023/09/01 02:11:49;;;;;;;;;;;;;;;;;;5014467;28;19936;-93
2023/09/01 02:14:15;;;;;;;;;;;;;;;;;;5008926;28;20312;-94
2023/09/01 02:16:41;;;;;;;;;;;;;;;;;;5002115;28;19909;-94
2023/09/01 02:19:11;;;;;;;;;;;;;;;;;;5005692;28;19910;-94
2023/09/01 02:21:37;;;;;;;;;;;;;;;;;;5025422;28;20358;-94
2023/09/01 02:24:05;;;;;;;;;;;;;;;;;;5006440;28;19917;-94
2023/09/01 02:26:31;;;;;;;;;;;;;;;;;;5006639;28;19910;-94
2023/09/01 02:28:57;;;;;;;;;;;;;;;;;;5009436;28;20331;-94
2023/09/01 02:31:24;;;;;;;;;;;;;;;;;;5009133;28;19916;-93
2023/09/01 02:33:50;;;;;;;;;;;;;;;;;;5012510;28;20268;-95
2023/09/01 02:36:16;;;;;;;;;;;;;;;;;;5012037;28;19948;-93
2023/09/01 02:38:42;;;;;;;;;;;;;;;;;;5012532;28;19920;-95
2023/09/01 02:41:08;;;;;;;;;;;;;;;;;;5010101;28;19909;-93
2023/09/01 02:43:34;;;;;;;;;;;;;;;;;;5014185;28;19913;-94
2023/09/01 02:46:00;;;;;;;;;;;;;;;;;;5012420;28;19913;-94
2023/09/01 02:48:26;;;;;;;;;;;;;;;;;;5014192;28;19924;-94
2023/09/01 02:50:52;;;;;;;;;;;;;;;;;;5007097;28;19917;-93
2023/09/01 02:53:18;;;;;;;;;;;;;;;;;;5008158;28;20284;-94
2023/09/01 02:55:44;;;;;;;;;;;;;;;;;;5012093;28;20012;-93
2023/09/01 02:58:10;;;;;;;;;;;;;;;;;;5007808;28;20178;-94
2023/09/01 03:00:36;;;;;;;;;;;;;;;;;;5000535;28;19917;-93
2023/09/01 03:03:02;;;;;;;;;;;;;;;;;;5005591;28;19917;-93
2023/09/01 03:05:28;;;;;;;;;;;;;;;;;;4998507;28;20296;-94
2023/09/01 03:07:54;;;;;;;;;;;;;;;;;;5009364;28;20017;-94
2023/09/01 03:10:21;;;;;;;;;;;;;;;;;;5010886;28;19936;-94
2023/09/01 03:12:48;;;;;;;;;;;;;;;;;;5010034;28;19909;-94
2023/09/01 03:15:15;;;;;;;;;;;;;;;;;;5009284;28;19909;-94
2023/09/01 03:17:40;;;;;;;;;;;;;;;;;;5004547;28;20007;-94
2023/09/01 03:20:09;;;;;;;;;;;;;;;;;;5010296;28;20356;-94
2023/09/01 03:22:35;;;;;;;;;;;;;;;;;;5011483;28;20110;-94
2023/09/01 03:25:01;;;;;;;;;;;;;;;;;;5012996;28;20304;-94
2023/09/01 03:27:27;;;;;;;;;;;;;;;;;;5013079;28;19906;-94
2023/09/01 03:29:54;;;;;;;;;;;;;;;;;;5011075;28;20361;-94
2023/09/01 03:32:19;;;;;;;;;;;;;;;;;;5011469;28;19909;-94
2023/09/01 03:34:45;;;;;;;;;;;;;;;;;;5009512;28;19949;-94
2023/09/01 03:37:13;;;;;;;;;;;;;;;;;;5015784;28;20277;-95
2023/09/01 03:39:39;;;;;;;;;;;;;;;;;;5013593;28;19913;-93
2023/09/01 03:42:05;;;;;;;;;;;;;;;;;;5016431;28;19914;-95
2023/09/01 03:44:31;;;;;;;;;;;;;;;;;;5015968;28;20424;-93
2023/09/01 03:46:58;;;;;;;;;;;;;;;;;;5010935;28;20023;-94
2023/09/01 03:49:26;;;;;;;;;;;;;;;;;;5003413;28;19957;-95
2023/09/01 03:51:52;;;;;;;;;;;;;;;;;;5004729;28;19918;-94
2023/09/01 03:54:19;;;;;;;;;;;;;;;;;;5015204;28;20330;-93
2023/09/01 03:56:45;;;;;;;;;;;;;;;;;;5011228;28;19909;-94
2023/09/01 03:59:10;;;;;;;;;;;;;;;;;;5005596;28;19923;-94
2023/09/01 04:01:36;;;;;;;;;;;;;;;;;;5005712;28;19909;-95
2023/09/01 04:04:02;;;;;;;;;;;;;;;;;;5007493;28;19917;-94
2023/09/01 04:06:28;;;;;;;;;;;;;;;;;;5018962;28;20012;-94
2023/09/01 04:08:54;;;;;;;;;;;;;;;;;;5009453;28;19952;-94
2023/09/01 04:11:20;;;;;;;;;;;;;;;;;;5012852;28;21028;-94
2023/09/01 04:13:46;;;;;;;;;;;;;;;;;;5011530;28;19994;-94
2023/09/01 04:16:12;;;;;;;;;;;;;;;;;;5012928;28;19917;-94
2023/09/01 04:18:38;;;;;;;;;;;;;;;;;;5007191;28;19913;-93
2023/09/01 04:21:04;;;;;;;;;;;;;;;;;;5010441;28;20380;-94
2023/09/01 04:23:31;;;;;;;;;;;;;;;;;;5014718;28;19917;-94
2023/09/01 04:25:57;;;;;;;;;;;;;;;;;;5011116;28;20015;-93
2023/09/01 04:28:23;;;;;;;;;;;;;;;;;;5011286;28;19960;-94
2023/09/01 04:30:49;;;;;;;;;;;;;;;;;;5013713;28;19918;-94
2023/09/01 04:33:15;;;;;;;;;;;;;;;;;;5004997;28;20373;-93
2023/09/01 04:35:41;;;;;;;;;;;;;;;;;;5009213;28;19898;-94
2023/09/01 04:38:07;;;;;;;;;;;;;;;;;;5011940;28;20000;-94
2023/09/01 04:40:33;;;;;;;;;;;;;;;;;;5013179;28;19941;-94
2023/09/01 04:42:59;;;;;;;;;;;;;;;;;;5006675;28;20011;-93
2023/09/01 04:45:24;;;;;;;;;;;;;;;;;;5010544;28;19944;-94
2023/09/01 04:47:50;;;;;;;;;;;;;;;;;;5006829;28;19914;-93
2023/09/01 04:50:16;;;;;;;;;;;;;;;;;;5012761;28;19921;-93
2023/09/01 04:52:42;;;;;;;;;;;;;;;;;;5027939;28;19914;-94
2023/09/01 04:55:09;;;;;;;;;;;;;;;;;;5014035;28;19917;-95
2023/09/01 04:57:35;;;;;;;;;;;;;;;;;;5013470;28;20518;-94
2023/09/01 05:00:02;;;;;;;;;;;;;;;;;;5012673;28;19913;-93
2023/09/01 05:02:28;;;;;;;;;;;;;;;;;;5009505;28;19917;-93
2023/09/01 05:04:54;;;;;;;;;;;;;;;;;;5002241;28;19918;-93
2023/09/01 05:07:20;;;;;;;;;;;;;;;;;;5007373;28;19909;-94
2023/09/01 05:09:46;;;;;;;;;;;;;;;;;;5012471;28;20369;-94
2023/09/01 05:12:12;;;;;;;;;;;;;;;;;;5010231;28;20424;-94
2023/09/01 05:14:38;;;;;;;;;;;;;;;;;;5008204;28;19913;-94
2023/09/01 05:17:03;;;;;;;;;;;;;;;;;;5015086;28;19932;-94
2023/09/01 05:19:31;;;;;;;;;;;;;;;;;;5010086;28;19917;-94
2023/09/01 05:21:56;;;;;;;;;;;;;;;;;;5009677;28;19914;-94
2023/09/01 05:24:22;;;;;;;;;;;;;;;;;;5005747;28;19910;-95
2023/09/01 05:26:48;;;;;;;;;;;;;;;;;;5015869;28;20222;-94
2023/09/01 05:29:16;;;;;;;;;;;;;;;;;;5009020;28;19917;-95
2023/09/01 05:31:42;;;;;;;;;;;;;;;;;;5007725;28;19909;-94
2023/09/01 05:34:08;;;;;;;;;;;;;;;;;;5009017;28;19928;-93
2023/09/01 05:36:36;;;;;;;;;;;;;;;;;;5009460;28;19910;-92
2023/09/01 05:39:02;;;;;;;;;;;;;;;;;;5014935;28;20291;-93
2023/09/01 05:41:29;;;;;;;;;;;;;;;;;;5009255;28;19924;-94
2023/09/01 05:43:55;;;;;;;;;;;;;;;;;;5011988;28;19913;-94
2023/09/01 05:46:21;;;;;;;;;;;;;;;;;;5007514;28;19932;-94
2023/09/01 05:48:47;;;;;;;;;;;;;;;;;;5006237;28;19971;-94
2023/09/01 05:51:13;;;;;;;;;;;;;;;;;;5012264;28;19917;-94
2023/09/01 05:53:39;;;;;;;;;;;;;;;;;;5012427;28;20162;-93
2023/09/01 05:56:05;;;;;;;;;;;;;;;;;;5011744;28;20000;-94
2023/09/01 05:58:31;;;;;;;;;;;;;;;;;;5007674;28;19947;-94
2023/09/01 06:00:56;;;;;;;;;;;;;;;;;;5007753;28;19914;-93
2023/09/01 06:03:22;;;;;;;;;;;;;;;;;;5005963;28;20388;-94
2023/09/01 06:05:48;;;;;;;;;;;;;;;;;;5008907;28;19914;-94
2023/09/01 06:08:14;;;;;;;;;;;;;;;;;;5010817;28;19917;-93
2023/09/01 06:10:40;;;;;;;;;;;;;;;;;;5010312;28;19909;-94
2023/09/01 06:13:06;;;;;;;;;;;;;;;;;;5009605;28;19992;-94
2023/09/01 06:15:32;;;;;;;;;;;;;;;;;;5011210;28;19960;-94
2023/09/01 06:17:58;;;;;;;;;;;;;;;;;;5003772;28;20396;-93
2023/09/01 06:20:37;;;;;;;;;;;;;;;;;;4755701;27;8264382;-91
2023/09/01 06:23:03;;;;;;;;;;;;;;;;;;5025847;28;19917;-92
2023/09/01 06:25:29;;;;;;;;;;;;;;;;;;5025403;28;20025;-90
2023/09/01 06:27:55;;;;;;;;;;;;;;;;;;5032134;28;20419;-91
2023/09/01 06:30:23;;;;;;;;;;;;;;;;;;5031246;28;19921;-91
2023/09/01 06:32:49;;;;;;;;;;;;;;;;;;5030328;28;19942;-90
2023/09/01 06:35:15;;;;;;;;;;;;;;;;;;5028054;28;19921;-92
2023/09/01 06:37:41;;;;;;;;;;;;;;;;;;5031245;28;19967;-92
2023/09/01 06:40:06;;;;;;;;;;;;;;;;;;5036570;28;19984;-91
2023/09/01 06:42:32;;;;;;;;;;;;;;;;;;5034112;28;19913;-91
2023/09/01 06:44:59;;;;;;;;;;;;;;;;;;5031705;28;19920;-91
2023/09/01 06:47:24;;;;;;;;;;;;;;;;;;5028765;28;19917;-92
2023/09/01 06:49:50;;;;;;;;;;;;;;;;;;5031483;28;19963;-92
2023/09/01 06:52:17;;;;;;;;;;;;;;;;;;5027252;28;19928;-91
2023/09/01 06:54:50;;;;;;;;;;;;;;;;;;5024118;28;19921;-91
2023/09/01 06:57:16;;;;;;;;;;;;;;;;;;5014331;28;19917;-92
2023/09/01 06:59:41;;;;;;;;;;;;;;;;;;5013877;28;19941;-92
2023/09/01 07:02:07;;;;;;;;;;;;;;;;;;5013528;28;20440;-91
2023/09/01 07:04:33;;;;;;;;;;;;;;;;;;5012583;28;19921;-92
2023/09/01 07:06:59;;;;;;;;;;;;;;;;;;5011947;28;19913;-91
2023/09/01 07:09:25;;;;;;;;;;;;;;;;;;5012893;28;19956;-92
2023/09/01 07:11:51;;;;;;;;;;;;;;;;;;5011146;28;20004;-91
2023/09/01 07:14:17;;;;;;;;;;;;;;;;;;5010346;28;19914;-93
2023/09/01 07:16:43;;;;;;;;;;;;;;;;;;5029231;28;19924;-92
2023/09/01 07:19:09;;;;;;;;;;;;;;;;;;5013031;28;19987;-91
2023/09/01 07:21:35;;;;;;;;;;;;;;;;;;5007534;28;19921;-91
2023/09/01 07:24:02;;;;;;;;;;;;;;;;;;5008907;28;19941;-91
2023/09/01 07:26:28;;;;;;;;;;;;;;;;;;5006972;28;19913;-93
2023/09/01 07:28:54;;;;;;;;;;;;;;;;;;5011414;28;19922;-92
2023/09/01 07:31:20;;;;;;;;;;;;;;;;;;5005238;28;20333;-93
2023/09/01 07:33:46;;;;;;;;;;;;;;;;;;5003218;28;19918;-92
2023/09/01 07:36:15;;;;;;;;;;;;;;;;;;5003261;28;19959;-96
2023/09/01 07:38:41;;;;;;;;;;;;;;;;;;5004946;28;20017;-96
2023/09/01 07:41:13;;;;;;;;;;;;;;;;;;5005406;28;19914;-96
2023/09/01 07:43:39;;;;;;;;;;;;;;;;;;5003441;28;19917;-93
2023/09/01 07:46:05;;;;;;;;;;;;;;;;;;4993280;28;19918;-91
2023/09/01 07:48:34;;;;;;;;;;;;;;;;;;4994020;28;20331;-92
2023/09/01 07:51:00;;;;;;;;;;;;;;;;;;4996433;28;19914;-91
2023/09/01 07:53:26;;;;;;;;;;;;;;;;;;4995235;28;19915;-92
2023/09/01 07:55:52;;;;;;;;;;;;;;;;;;4993780;28;19921;-91
2023/09/01 07:58:19;;;;;;;;;;;;;;;;;;4994519;28;19996;-93
2023/09/01 08:00:45;;;;;;;;;;;;;;;;;;4995972;28;19910;-92
2023/09/01 08:03:11;;;;;;;;;;;;;;;;;;4997137;28;19925;-92
2023/09/01 08:05:38;;;;;;;;;;;;;;;;;;4995421;28;20358;-93
2023/09/01 08:08:03;;;;;;;;;;;;;;;;;;4994330;28;19980;-92
2023/09/01 08:10:29;;;;;;;;;;;;;;;;;;4996180;28;19918;-92
2023/09/01 08:12:55;;;;;;;;;;;;;;;;;;4989635;28;19941;-92
2023/09/01 08:15:21;;;;;;;;;;;;;;;;;;4995598;28;20012;-92
2023/09/01 08:17:49;;;;;;;;;;;;;;;;;;4992675;28;19968;-91
2023/09/01 08:20:17;;;;;;;;;;;;;;;;;;4997957;28;19988;-92
2023/09/01 08:22:43;;;;;;;;;;;;;;;;;;4994259;28;19936;-92
2023/09/01 08:25:09;;;;;;;;;;;;;;;;;;5005342;28;19918;-93
2023/09/01 08:27:35;;;;;;;;;;;;;;;;;;5006855;28;19917;-92
2023/09/01 08:30:01;;;;;;;;;;;;;;;;;;5005507;28;19918;-93
2023/09/01 08:32:27;;;;;;;;;;;;;;;;;;5017158;28;20140;-92
2023/09/01 08:34:53;;;;;;;;;;;;;;;;;;4999684;28;19985;-92
2023/09/01 08:37:20;;;;;;;;;;;;;;;;;;5002479;28;19917;-92
2023/09/01 08:39:49;;;;;;;;;;;;;;;;;;4995977;28;19918;-93
2023/09/01 08:42:19;;;;;;;;;;;;;;;;;;4997111;28;19984;-92
2023/09/01 08:44:45;;;;;;;;;;;;;;;;;;4996387;28;19957;-92
2023/09/01 08:47:11;;;;;;;;;;;;;;;;;;4993047;28;19921;-93
2023/09/01 08:49:36;;;;;;;;;;;;;;;;;;4994797;28;19976;-92
2023/09/01 08:52:02;;;;;;;;;;;;;;;;;;4990738;28;19918;-92
2023/09/01 08:54:31;;;;;;;;;;;;;;;;;;4999922;28;19913;-94
2023/09/01 08:56:58;;;;;;;;;;;;;;;;;;5008269;28;19969;-94
2023/09/01 08:59:27;;;;;;;;;;;;;;;;;;5010589;28;19938;-94
2023/09/01 09:01:54;;;;;;;;;;;;;;;;;;5007837;28;19909;-95
2023/09/01 09:04:20;;;;;;;;;;;;;;;;;;5007985;28;19902;-94
2023/09/01 09:06:45;;;;;;;;;;;;;;;;;;5009216;28;19985;-94
2023/09/01 09:09:12;;;;;;;;;;;;;;;;;;5007220;28;19926;-94
2023/09/01 09:11:38;;;;;;;;;;;;;;;;;;5005800;28;19925;-95
2023/09/01 09:14:04;;;;;;;;;;;;;;;;;;5005203;28;19917;-93
2023/09/01 09:16:30;;;;;;;;;;;;;;;;;;5005832;28;19924;-95
2023/09/01 09:18:56;;;;;;;;;;;;;;;;;;5005624;28;19930;-94
2023/09/01 09:21:23;;;;;;;;;;;;;;;;;;5009031;28;19922;-93
2023/09/01 09:23:49;;;;;;;;;;;;;;;;;;5012925;28;19914;-95
2023/09/01 09:26:15;;;;;;;;;;;;;;;;;;5020135;28;19964;-94
2023/09/01 09:28:48;;;;;;;;;;;;;;;;;;5013859;28;19929;-93
2023/09/01 09:31:20;;;;;;;;;;;;;;;;;;5009476;28;19913;-96
2023/09/01 09:33:55;;;;;;;;;;;;;;;;;;5014587;28;19918;-94
2023/09/01 09:36:31;;;;;;;;;;;;;;;;;;5027651;28;20009;-93
2023/09/01 12:48:20;;;;;;;;;;;;;;;;;;4997217;28;20447;-92
2023/09/01 12:50:46;;;;;;;;;;;;;;;;;;4985981;28;20198;-92
2023/09/01 12:53:36;;;;;;;;;;;;;;;;;;4987871;28;19918;-92
2023/09/01 12:56:09;;;;;;;;;;;;;;;;;;4974993;28;20358;-92
2023/09/01 12:58:35;;;;;;;;;;;;;;;;;;4974958;28;19956;-92
2023/09/01 13:01:04;;;;;;;;;;;;;;;;;;4971554;28;19965;-92
2023/09/01 13:03:30;;;;;;;;;;;;;;;;;;4966290;28;19937;-92
2023/09/01 13:05:56;;;;;;;;;;;;;;;;;;4970346;28;19944;-92
2023/09/01 13:08:22;;;;;;;;;;;;;;;;;;4972620;28;19914;-92
2023/09/01 13:10:48;;;;;;;;;;;;;;;;;;4976409;28;19914;-91
2023/09/01 13:13:16;;;;;;;;;;;;;;;;;;4969347;28;20485;-91
2023/09/01 13:15:42;;;;;;;;;;;;;;;;;;4964663;28;19914;-91
2023/09/01 13:18:08;;;;;;;;;;;;;;;;;;4988959;28;19921;-92
2023/09/01 13:20:34;;;;;;;;;;;;;;;;;;4971601;28;19917;-92
2023/09/01 13:23:00;;;;;;;;;;;;;;;;;;4973541;28;19933;-92
2023/09/01 13:25:26;;;;;;;;;;;;;;;;;;4975296;28;19923;-90
2023/09/01 13:27:52;;;;;;;;;;;;;;;;;;4970916;28;20000;-91
2023/09/01 13:30:18;;;;;;;;;;;;;;;;;;4963220;28;20278;-90
2023/09/01 13:32:44;;;;;;;;;;;;;;;;;;4968139;28;19918;-90
2023/09/01 13:35:10;;;;;;;;;;;;;;;;;;4970900;28;19914;-93
2023/09/01 13:37:36;;;;;;;;;;;;;;;;;;4980407;28;20017;-94
2023/09/01 13:40:02;;;;;;;;;;;;;;;;;;4978916;28;19985;-94
2023/09/01 13:42:31;;;;;;;;;;;;;;;;;;4978757;28;20335;-95
2023/09/01 13:44:57;;;;;;;;;;;;;;;;;;4976533;28;19918;-95
2023/09/01 13:47:23;;;;;;;;;;;;;;;;;;4987791;28;19932;-95
2023/09/01 13:49:52;;;;;;;;;;;;;;;;;;4985256;28;19917;-95
2023/09/01 13:52:36;;;;;;;;;;;;;;;;;;4984893;28;20315;-96
2023/09/01 13:55:02;;;;;;;;;;;;;;;;;;4980067;28;20006;-94
2023/09/01 13:57:28;;;;;;;;;;;;;;;;;;4979623;28;19922;-96
2023/09/01 14:00:04;;;;;;;;;;;;;;;;;;4996614;28;20020;-94
2023/09/01 14:02:32;;;;;;;;;;;;;;;;;;4982932;28;19920;-95
2023/09/01 14:04:59;;;;;;;;;;;;;;;;;;4980485;28;19964;-96
2023/09/01 14:07:25;;;;;;;;;;;;;;;;;;4984282;28;19913;-96
2023/09/01 14:09:51;;;;;;;;;;;;;;;;;;4985203;28;19918;-94
2023/09/01 14:12:21;;;;;;;;;;;;;;;;;;4979945;28;19929;-95
2023/09/01 14:14:56;;;;;;;;;;;;;;;;;;4980394;28;19929;-95
2023/09/01 14:17:25;;;;;;;;;;;;;;;;;;4976247;28;19925;-95
2023/09/01 14:19:51;;;;;;;;;;;;;;;;;;4984521;28;20316;-95
2023/09/01 14:22:17;;;;;;;;;;;;;;;;;;4984851;28;19925;-93
2023/09/01 14:24:43;;;;;;;;;;;;;;;;;;4981577;28;20001;-95
2023/09/01 14:27:09;;;;;;;;;;;;;;;;;;4977772;28;19996;-92
2023/09/01 14:29:39;;;;;;;;;;;;;;;;;;4975716;28;19914;-95
2023/09/01 14:32:12;;;;;;;;;;;;;;;;;;4978273;28;19940;-95
2023/09/01 14:34:39;;;;;;;;;;;;;;;;;;4970908;28;19924;-95
2023/09/01 14:37:08;;;;;;;;;;;;;;;;;;4980509;28;19925;-95
2023/09/01 14:39:34;;;;;;;;;;;;;;;;;;4978291;28;20008;-95
2023/09/01 14:42:00;;;;;;;;;;;;;;;;;;4977705;28;20514;-94
2023/09/01 14:44:27;;;;;;;;;;;;;;;;;;4992622;28;19913;-94
2023/09/01 14:46:53;;;;;;;;;;;;;;;;;;4982335;28;20018;-95
2023/09/01 14:49:19;;;;;;;;;;;;;;;;;;4982327;28;20032;-95
2023/09/01 14:51:45;;;;;;;;;;;;;;;;;;4983794;28;19913;-95
2023/09/01 14:54:11;;;;;;;;;;;;;;;;;;4987883;28;20381;-95
2023/09/01 14:56:37;;;;;;;;;;;;;;;;;;4983134;28;19924;-96
2023/09/01 14:59:03;;;;;;;;;;;;;;;;;;4981307;28;19922;-95
2023/09/01 15:01:29;;;;;;;;;;;;;;;;;;4979376;28;20004;-94
2023/09/01 15:03:56;;;;;;;;;;;;;;;;;;4994251;28;19934;-94
2023/09/01 15:06:33;;;;;;;;;;;;;;;;;;4983078;28;19918;-96
2023/09/01 15:08:59;;;;;;;;;;;;;;;;;;4981479;28;20480;-95
2023/09/01 15:11:25;;;;;;;;;;;;;;;;;;4980573;28;19958;-94
2023/09/01 15:13:51;;;;;;;;;;;;;;;;;;4985433;28;19917;-94
2023/09/01 15:16:20;;;;;;;;;;;;;;;;;;4971010;28;19914;-94
2023/09/01 15:18:46;;;;;;;;;;;;;;;;;;4984681;28;19917;-92
2023/09/01 15:21:12;;;;;;;;;;;;;;;;;;4977005;28;19941;-95
2023/09/01 15:23:38;;;;;;;;;;;;;;;;;;4976247;28;19918;-95
2023/09/01 15:26:04;;;;;;;;;;;;;;;;;;4997056;28;19960;-96
2023/09/01 15:28:30;;;;;;;;;;;;;;;;;;4979239;28;19914;-95
2023/09/01 15:30:56;;;;;;;;;;;;;;;;;;4978116;28;19921;-95
2023/09/01 15:33:22;;;;;;;;;;;;;;;;;;4975943;28;20148;-94
2023/09/01 15:35:48;;;;;;;;;;;;;;;;;;4976093;28;20290;-96
2023/09/01 15:38:14;;;;;;;;;;;;;;;;;;4975431;28;19918;-95
2023/09/01 15:40:40;;;;;;;;;;;;;;;;;;4981729;28;19913;-93
2023/09/01 15:43:07;;;;;;;;;;;;;;;;;;4979903;28;19914;-96
2023/09/01 15:45:36;;;;;;;;;;;;;;;;;;4977735;28;20004;-91
2023/09/01 15:48:02;;;;;;;;;;;;;;;;;;4983623;28;19932;-91
2023/09/01 15:50:34;;;;;;;;;;;;;;;;;;4977951;28;19914;-90
2023/09/01 15:53:00;;;;;;;;;;;;;;;;;;4975893;28;19921;-90
2023/09/01 15:55:26;;;;;;;;;;;;;;;;;;4972029;28;19917;-91
2023/09/01 15:57:52;;;;;;;;;;;;;;;;;;4982789;28;19913;-91
2023/09/01 16:00:18;;;;;;;;;;;;;;;;;;4978399;28;19922;-91
2023/09/01 16:02:44;;;;;;;;;;;;;;;;;;4978528;28;20548;-91
2023/09/01 16:05:10;;;;;;;;;;;;;;;;;;4973040;28;20336;-91
2023/09/01 16:07:36;;;;;;;;;;;;;;;;;;4978315;28;19926;-91
2023/09/01 16:10:02;;;;;;;;;;;;;;;;;;4975530;28;20259;-91
2023/09/01 16:12:28;;;;;;;;;;;;;;;;;;4974946;28;19921;-91
2023/09/01 16:14:54;;;;;;;;;;;;;;;;;;4980527;28;19922;-91
2023/09/01 16:17:20;;;;;;;;;;;;;;;;;;4971822;28;20040;-91
2023/09/01 16:19:46;;;;;;;;;;;;;;;;;;4978509;28;19917;-91
2023/09/01 16:22:12;;;;;;;;;;;;;;;;;;4980956;28;19910;-91
2023/09/01 16:24:38;;;;;;;;;;;;;;;;;;4979536;28;19917;-91
2023/09/01 16:27:06;;;;;;;;;;;;;;;;;;4976791;28;19984;-90
2023/09/01 16:29:32;;;;;;;;;;;;;;;;;;4971709;28;20032;-91
2023/09/01 16:31:58;;;;;;;;;;;;;;;;;;4974764;28;19996;-91
2023/09/01 16:34:24;;;;;;;;;;;;;;;;;;4971175;28;19918;-91
2023/09/01 16:36:50;;;;;;;;;;;;;;;;;;4992116;28;19934;-91
2023/09/01 16:39:16;;;;;;;;;;;;;;;;;;4993581;28;20275;-90
2023/09/01 16:41:42;;;;;;;;;;;;;;;;;;4969925;28;19914;-91
2023/09/01 16:44:08;;;;;;;;;;;;;;;;;;4976782;28;19922;-91
2023/09/01 16:46:34;;;;;;;;;;;;;;;;;;4973290;28;19914;-90
2023/09/01 16:49:00;;;;;;;;;;;;;;;;;;4995498;28;19979;-91
2023/09/01 16:51:26;;;;;;;;;;;;;;;;;;4996108;28;19914;-91
2023/09/01 16:53:52;;;;;;;;;;;;;;;;;;4993238;28;19937;-91
2023/09/01 16:56:18;;;;;;;;;;;;;;;;;;4999944;28;20254;-90
2023/09/01 16:58:47;;;;;;;;;;;;;;;;;;4986885;28;20028;-89
2023/09/01 17:01:13;;;;;;;;;;;;;;;;;;4994329;28;19936;-89
2023/09/01 17:03:39;;;;;;;;;;;;;;;;;;4995470;28;20353;-88
2023/09/01 17:06:05;;;;;;;;;;;;;;;;;;4989649;28;19924;-95
2023/09/01 17:08:31;;;;;;;;;;;;;;;;;;4993054;28;20376;-95
2023/09/01 17:10:57;;;;;;;;;;;;;;;;;;4985607;28;19964;-96
2023/09/01 17:13:23;;;;;;;;;;;;;;;;;;4991173;28;19921;-94
2023/09/01 17:15:49;;;;;;;;;;;;;;;;;;5002506;28;20365;-94
2023/09/01 17:18:15;;;;;;;;;;;;;;;;;;4997926;28;19976;-95
2023/09/01 17:20:41;;;;;;;;;;;;;;;;;;5000416;28;19918;-95
2023/09/01 17:23:08;;;;;;;;;;;;;;;;;;4996318;28;19925;-95
2023/09/01 17:25:34;;;;;;;;;;;;;;;;;;4997620;28;20360;-94
2023/09/01 17:28:00;;;;;;;;;;;;;;;;;;4998668;28;20605;-94
2023/09/01 17:30:42;;;;;;;;;;;;;;;;;;4994991;28;19914;-94
2023/09/01 17:33:08;;;;;;;;;;;;;;;;;;4993356;28;19964;-93
2023/09/01 17:35:34;;;;;;;;;;;;;;;;;;4995909;28;19917;-95
2023/09/01 17:38:00;;;;;;;;;;;;;;;;;;4991417;28;19922;-94
2023/09/01 17:40:26;;;;;;;;;;;;;;;;;;4995153;28;19918;-95
2023/09/01 17:42:52;;;;;;;;;;;;;;;;;;4987554;28;19957;-94
2023/09/01 17:45:18;;;;;;;;;;;;;;;;;;5000500;28;19921;-95
2023/09/01 17:47:44;;;;;;;;;;;;;;;;;;4987755;28;19937;-95
2023/09/01 17:50:10;;;;;;;;;;;;;;;;;;4973965;28;19918;-95
2023/09/01 17:52:36;;;;;;;;;;;;;;;;;;4970933;28;20044;-95
2023/09/01 17:55:03;;;;;;;;;;;;;;;;;;4978975;28;19940;-94
2023/09/01 17:57:29;;;;;;;;;;;;;;;;;;4974906;28;19922;-94
2023/09/01 17:59:55;;;;;;;;;;;;;;;;;;4974816;28;19928;-94
2023/09/01 18:02:21;;;;;;;;;;;;;;;;;;4976884;28;20477;-94
2023/09/01 18:04:47;;;;;;;;;;;;;;;;;;4973549;28;19914;-89
2023/09/01 18:07:14;;;;;;;;;;;;;;;;;;4970121;28;19965;-90
2023/09/01 18:09:41;;;;;;;;;;;;;;;;;;4972561;28;19976;-89
2023/09/01 18:12:07;;;;;;;;;;;;;;;;;;4970980;28;19961;-90
2023/09/01 18:14:39;;;;;;;;;;;;;;;;;;4977678;28;19945;-95
2023/09/01 18:17:05;;;;;;;;;;;;;;;;;;4977964;28;19924;-93
2023/09/01 18:19:31;;;;;;;;;;;;;;;;;;4973820;28;20699;-95
2023/09/01 18:21:57;;;;;;;;;;;;;;;;;;4977826;28;19917;-94
2023/09/01 18:24:22;;;;;;;;;;;;;;;;;;4980769;28;19914;-95
2023/09/01 18:26:48;;;;;;;;;;;;;;;;;;4979935;28;19913;-94
2023/09/01 18:29:14;;;;;;;;;;;;;;;;;;4978167;28;19929;-93
2023/09/01 18:31:40;;;;;;;;;;;;;;;;;;4980350;28;19925;-96
2023/09/01 18:34:06;;;;;;;;;;;;;;;;;;4965865;28;19918;-94
2023/09/01 18:36:32;;;;;;;;;;;;;;;;;;4984473;28;19918;-94
2023/09/01 18:38:58;;;;;;;;;;;;;;;;;;4980278;28;20270;-93
2023/09/01 18:41:24;;;;;;;;;;;;;;;;;;4975554;28;19976;-95
2023/09/01 18:43:50;;;;;;;;;;;;;;;;;;4981809;28;19922;-94
2023/09/01 18:46:23;;;;;;;;;;;;;;;;;;4976479;28;19972;-94
2023/09/01 18:48:49;;;;;;;;;;;;;;;;;;4982259;28;19925;-94
2023/09/01 18:51:15;;;;;;;;;;;;;;;;;;4975766;28;19922;-93
2023/09/01 18:53:44;;;;;;;;;;;;;;;;;;4977903;28;19940;-94
2023/09/01 18:56:10;;;;;;;;;;;;;;;;;;4975079;28;19918;-94
2023/09/01 18:58:37;;;;;;;;;;;;;;;;;;4975420;28;19937;-95
2023/09/01 19:01:05;;;;;;;;;;;;;;;;;;4965107;28;19973;-94
2023/09/01 19:03:31;;;;;;;;;;;;;;;;;;4975905;28;20393;-94
2023/09/01 19:05:59;;;;;;;;;;;;;;;;;;4965784;28;19915;-95
2023/09/01 19:08:25;;;;;;;;;;;;;;;;;;4972501;28;19929;-96
2023/09/01 19:10:52;;;;;;;;;;;;;;;;;;4975905;28;20010;-95
2023/09/01 19:13:19;;;;;;;;;;;;;;;;;;4977551;28;19921;-94
2023/09/01 19:15:45;;;;;;;;;;;;;;;;;;4975532;28;20020;-89
2023/09/01 19:18:11;;;;;;;;;;;;;;;;;;4965667;28;20457;-88
2023/09/01 19:20:36;;;;;;;;;;;;;;;;;;4974506;28;19918;-89
2023/09/01 19:23:02;;;;;;;;;;;;;;;;;;4973350;28;19917;-90
2023/09/01 19:25:28;;;;;;;;;;;;;;;;;;4977291;28;20005;-92
2023/09/01 19:27:54;;;;;;;;;;;;;;;;;;4983939;28;19921;-94
2023/09/01 19:30:20;;;;;;;;;;;;;;;;;;4973580;28;20288;-92
2023/09/01 19:32:46;;;;;;;;;;;;;;;;;;4979794;28;19981;-94
2023/09/01 19:35:15;;;;;;;;;;;;;;;;;;4980955;28;20004;-93
2023/09/01 19:37:41;;;;;;;;;;;;;;;;;;4973283;28;19922;-95
2023/09/01 19:40:07;;;;;;;;;;;;;;;;;;4983080;28;20534;-94
2023/09/01 19:42:34;;;;;;;;;;;;;;;;;;4985867;28;19918;-95
2023/09/01 19:45:00;;;;;;;;;;;;;;;;;;4987585;28;19921;-94
2023/09/01 19:47:25;;;;;;;;;;;;;;;;;;4981718;28;19933;-96
2023/09/01 19:50:13;;;;;;;;;;;;;;;;;;4979189;28;19922;-95